createdAt,value
2018-12-04T00:00:11.396Z,97.37
2018-12-04T00:01:11.404Z,97.52
2018-12-04T00:02:11.379Z,97.62
2018-12-04T00:03:11.384Z,97.62
2018-12-04T00:04:11.374Z,97.47
2018-12-04T00:05:11.370Z,97.62
2018-12-04T00:06:11.334Z,97.41
2018-12-04T00:07:11.330Z,97.47
2018-12-04T00:08:11.321Z,97.37
2018-12-04T00:09:11.308Z,97.57
2018-12-04T00:10:11.297Z,96.95
2018-12-04T00:11:11.347Z,97.31
2018-12-04T00:12:11.263Z,97.16
2018-12-04T00:13:11.257Z,97.37
2018-12-04T00:14:11.244Z,97.16
2018-12-04T00:15:11.242Z,96.85
2018-12-04T00:16:11.239Z,97.06
2018-12-04T00:17:11.237Z,97.16
2018-12-04T00:18:11.220Z,97.37
2018-12-04T00:19:11.191Z,97.57
2018-12-04T00:20:11.179Z,97.06
2018-12-04T00:21:11.174Z,97.37
2018-12-04T00:22:11.181Z,97.27
2018-12-04T00:23:11.143Z,97.16
2018-12-04T00:24:11.134Z,97.16
2018-12-04T00:25:11.151Z,97.27
2018-12-04T00:26:11.111Z,96.85
2018-12-04T00:27:11.112Z,96.85
2018-12-04T00:28:11.095Z,96.95
2018-12-04T00:29:11.090Z,96.65
2018-12-04T00:30:11.069Z,97.47
2018-12-04T00:31:11.087Z,97.16
2018-12-04T00:32:11.051Z,97.16
2018-12-04T00:33:11.039Z,96.95
2018-12-04T00:34:11.028Z,96.81
2018-12-04T00:35:11.021Z,96.70
2018-12-04T00:36:11.015Z,96.85
2018-12-04T00:37:11.012Z,96.60
2018-12-04T00:38:10.998Z,96.81
2018-12-04T00:39:10.982Z,96.85
2018-12-04T00:40:10.971Z,96.65
2018-12-04T00:41:10.958Z,96.81
2018-12-04T00:42:10.944Z,96.55
2018-12-04T00:43:10.949Z,96.30
2018-12-04T00:44:10.914Z,96.30
2018-12-04T00:45:10.898Z,96.40
2018-12-04T00:46:10.896Z,96.30
2018-12-04T00:47:10.897Z,96.50
2018-12-04T00:48:10.883Z,96.40
2018-12-04T00:49:10.890Z,96.30
2018-12-04T00:50:10.855Z,97.53
2018-12-04T00:51:10.842Z,97.32
2018-12-04T00:52:10.828Z,97.73
2018-12-04T00:53:10.847Z,97.83
2018-12-04T00:54:10.842Z,98.04
2018-12-04T00:55:10.788Z,98.66
2018-12-04T00:56:10.786Z,98.55
2018-12-04T00:57:10.776Z,98.66
2018-12-04T00:58:10.764Z,98.35
2018-12-04T00:59:10.751Z,98.66
2018-12-04T01:00:10.784Z,98.45
2018-12-04T01:01:10.738Z,99.17
2018-12-04T01:02:10.721Z,98.80
2018-12-04T01:03:10.706Z,99.38
2018-12-04T01:04:10.700Z,98.86
2018-12-04T01:05:10.681Z,98.86
2018-12-04T01:06:10.698Z,99.17
2018-12-04T01:07:10.669Z,98.96
2018-12-04T01:08:10.663Z,99.48
2018-12-04T01:09:10.639Z,99.58
2018-12-04T01:10:10.644Z,99.38
2018-12-04T01:11:10.664Z,99.52
2018-12-04T01:12:10.623Z,99.48
2018-12-04T01:13:10.600Z,99.58
2018-12-04T01:14:10.596Z,99.17
2018-12-04T01:15:10.578Z,98.76
2018-12-04T01:16:10.558Z,98.96
2018-12-04T01:17:10.584Z,99.17
2018-12-04T01:18:10.543Z,99.17
2018-12-04T01:19:10.533Z,98.86
2018-12-04T01:20:10.530Z,99.07
2018-12-04T01:21:10.515Z,99.48
2018-12-04T01:22:10.507Z,99.17
2018-12-04T01:23:10.503Z,98.96
2018-12-04T01:24:10.469Z,99.17
2018-12-04T01:25:10.474Z,99.07
2018-12-04T01:26:10.468Z,99.17
2018-12-04T01:27:10.449Z,98.66
2018-12-04T01:28:10.458Z,99.17
2018-12-04T01:29:10.429Z,99.07
2018-12-04T01:30:10.408Z,98.45
2018-12-04T01:31:10.405Z,99.07
2018-12-04T01:32:10.398Z,99.17
2018-12-04T01:33:10.390Z,98.96
2018-12-04T01:34:10.396Z,99.32
2018-12-04T01:35:10.351Z,99.38
2018-12-04T01:36:10.340Z,99.07
2018-12-04T01:37:10.336Z,98.76
2018-12-04T01:38:10.321Z,99.38
2018-12-04T01:39:10.319Z,99.48
2018-12-04T01:40:10.322Z,99.38
2018-12-04T01:41:10.289Z,99.27
2018-12-04T01:42:10.285Z,99.38
2018-12-04T01:43:10.272Z,99.38
2018-12-04T01:44:10.267Z,99.38
2018-12-04T01:45:10.284Z,99.38
2018-12-04T01:46:10.243Z,99.79
2018-12-04T01:47:10.214Z,99.99
2018-12-04T01:48:10.209Z,99.99
2018-12-04T01:49:10.196Z,99.99
2018-12-04T01:50:10.185Z,99.99
2018-12-04T01:51:10.210Z,99.68
2018-12-04T01:52:10.187Z,99.58
2018-12-04T01:53:10.168Z,99.27
2018-12-04T01:54:10.170Z,99.89
2018-12-04T01:55:10.138Z,99.27
2018-12-04T01:56:10.133Z,99.79
2018-12-04T01:57:10.150Z,99.68
2018-12-04T01:58:10.111Z,99.58
2018-12-04T01:59:10.093Z,99.74
2018-12-04T02:00:10.087Z,99.54
2018-12-04T02:01:10.070Z,99.74
2018-12-04T02:02:10.055Z,99.89
2018-12-04T02:03:10.079Z,99.89
2018-12-04T02:04:10.047Z,99.33
2018-12-04T02:05:10.033Z,99.33
2018-12-04T02:06:10.050Z,99.43
2018-12-04T02:07:10.001Z,99.68
2018-12-04T02:08:09.992Z,99.38
2018-12-04T02:09:09.985Z,99.33
2018-12-04T02:10:09.976Z,99.48
2018-12-04T02:11:09.962Z,99.43
2018-12-04T02:12:09.976Z,99.43
2018-12-04T02:13:09.949Z,99.02
2018-12-04T02:14:09.927Z,99.22
2018-12-04T02:15:09.933Z,98.92
2018-12-04T02:16:09.917Z,98.61
2018-12-04T02:17:09.907Z,98.46
2018-12-04T02:18:09.903Z,98.16
2018-12-04T02:19:09.880Z,98.16
2018-12-04T02:20:09.857Z,97.44
2018-12-04T02:21:09.864Z,97.33
2018-12-04T02:22:09.836Z,97.03
2018-12-04T02:23:09.855Z,97.33
2018-12-04T02:24:09.825Z,97.33
2018-12-04T02:25:09.825Z,97.28
2018-12-04T02:26:09.813Z,97.33
2018-12-04T02:27:09.780Z,97.33
2018-12-04T02:28:09.774Z,97.33
2018-12-04T02:29:09.765Z,97.33
2018-12-04T02:30:09.862Z,97.64
2018-12-04T02:31:09.740Z,97.44
2018-12-04T02:32:09.736Z,97.33
2018-12-04T02:33:09.709Z,97.23
2018-12-04T02:34:09.699Z,97.85
2018-12-04T02:35:09.708Z,97.64
2018-12-04T02:36:09.744Z,97.64
2018-12-04T02:37:09.680Z,97.33
2018-12-04T02:38:09.682Z,97.33
2018-12-04T02:39:09.656Z,97.33
2018-12-04T02:40:09.642Z,97.74
2018-12-04T02:41:09.631Z,97.44
2018-12-04T02:42:09.641Z,97.23
2018-12-04T02:43:09.619Z,97.95
2018-12-04T02:44:09.606Z,98.05
2018-12-04T02:45:09.595Z,97.95
2018-12-04T02:46:09.580Z,97.23
2018-12-04T02:47:09.603Z,97.64
2018-12-04T02:48:09.555Z,97.85
2018-12-04T02:49:09.558Z,97.23
2018-12-04T02:50:09.542Z,97.74
2018-12-04T02:51:09.524Z,97.23
2018-12-04T02:52:09.565Z,97.44
2018-12-04T02:53:09.527Z,96.62
2018-12-04T02:54:09.493Z,97.33
2018-12-04T02:55:09.515Z,97.13
2018-12-04T02:56:09.476Z,96.92
2018-12-04T02:57:09.464Z,96.57
2018-12-04T02:58:09.449Z,96.26
2018-12-04T02:59:09.462Z,96.62
2018-12-04T03:00:09.428Z,96.78
2018-12-04T03:01:09.426Z,96.78
2018-12-04T03:02:09.410Z,96.47
2018-12-04T03:03:09.401Z,96.06
2018-12-04T03:04:09.394Z,96.06
2018-12-04T03:05:09.363Z,96.16
2018-12-04T03:06:09.352Z,96.37
2018-12-04T03:07:09.356Z,96.16
2018-12-04T03:08:09.361Z,96.06
2018-12-04T03:09:09.331Z,96.06
2018-12-04T03:10:09.344Z,96.37
2018-12-04T03:11:09.306Z,97.19
2018-12-04T03:12:09.292Z,95.44
2018-12-04T03:13:09.280Z,96.37
2018-12-04T03:14:09.266Z,95.95
2018-12-04T03:15:09.259Z,95.86
2018-12-04T03:16:09.283Z,96.16
2018-12-04T03:17:09.247Z,95.65
2018-12-04T03:18:09.225Z,94.93
2018-12-04T03:19:09.233Z,94.93
2018-12-04T03:20:09.210Z,94.87
2018-12-04T03:21:09.200Z,94.46
2018-12-04T03:22:09.207Z,93.74
2018-12-04T03:23:09.177Z,94.05
2018-12-04T03:24:09.165Z,94.92
2018-12-04T03:25:09.147Z,93.99
2018-12-04T03:26:09.144Z,93.99
2018-12-04T03:27:09.157Z,93.17
2018-12-04T03:28:09.128Z,93.07
2018-12-04T03:29:09.110Z,93.38
2018-12-04T03:30:09.113Z,93.42
2018-12-04T03:31:09.159Z,93.42
2018-12-04T03:32:09.061Z,94.04
2018-12-04T03:33:09.089Z,93.42
2018-12-04T03:34:09.061Z,93.21
2018-12-04T03:35:09.044Z,92.33
2018-12-04T03:36:09.021Z,91.72
2018-12-04T03:37:09.016Z,90.48
2018-12-04T03:38:08.996Z,90.89
2018-12-04T03:39:09.038Z,91.51
2018-12-04T03:40:09.006Z,91.10
2018-12-04T03:41:08.985Z,91.04
2018-12-04T03:42:08.969Z,91.86
2018-12-04T03:43:08.953Z,91.66
2018-12-04T03:44:08.960Z,91.04
2018-12-04T03:45:08.977Z,90.73
2018-12-04T03:46:08.921Z,90.22
2018-12-04T03:47:08.915Z,89.70
2018-12-04T03:48:08.914Z,90.53
2018-12-04T03:49:08.889Z,90.83
2018-12-04T03:50:08.871Z,89.29
2018-12-04T03:51:08.887Z,89.19
2018-12-04T03:52:08.859Z,90.73
2018-12-04T03:53:08.857Z,89.09
2018-12-04T03:54:08.840Z,89.95
2018-12-04T03:55:08.814Z,90.36
2018-12-04T03:56:08.822Z,89.23
2018-12-04T03:57:08.823Z,90.78
2018-12-04T03:58:08.785Z,89.85
2018-12-04T03:59:08.778Z,90.88
2018-12-04T04:00:08.773Z,90.78
2018-12-04T04:01:08.761Z,90.67
2018-12-04T04:02:08.777Z,90.98
2018-12-04T04:03:08.740Z,91.49
2018-12-04T04:04:08.727Z,91.70
2018-12-04T04:05:08.740Z,91.53
2018-12-04T04:06:08.701Z,92.57
2018-12-04T04:07:08.684Z,92.46
2018-12-04T04:08:08.687Z,92.67
2018-12-04T04:09:08.661Z,93.39
2018-12-04T04:10:08.653Z,92.87
2018-12-04T04:11:08.650Z,92.71
2018-12-04T04:12:08.671Z,92.36
2018-12-04T04:13:08.641Z,93.18
2018-12-04T04:14:08.621Z,93.29
2018-12-04T04:15:08.607Z,93.33
2018-12-04T04:16:08.584Z,93.39
2018-12-04T04:17:08.569Z,92.82
2018-12-04T04:18:08.586Z,93.43
2018-12-04T04:19:08.573Z,93.54
2018-12-04T04:20:08.549Z,92.71
2018-12-04T04:21:08.534Z,92.20
2018-12-04T04:22:08.516Z,92.40
2018-12-04T04:23:08.524Z,92.40
2018-12-04T04:24:08.540Z,93.08
2018-12-04T04:25:08.502Z,93.33
2018-12-04T04:26:08.489Z,93.33
2018-12-04T04:27:08.473Z,93.08
2018-12-04T04:28:08.454Z,92.20
2018-12-04T04:29:08.449Z,92.20
2018-12-04T04:30:08.461Z,92.20
2018-12-04T04:31:08.440Z,91.78
2018-12-04T04:32:08.419Z,91.68
2018-12-04T04:33:08.405Z,91.47
2018-12-04T04:34:08.389Z,91.68
2018-12-04T04:35:08.374Z,90.86
2018-12-04T04:36:08.377Z,91.06
2018-12-04T04:37:08.379Z,91.99
2018-12-04T04:38:08.360Z,91.47
2018-12-04T04:39:08.331Z,90.96
2018-12-04T04:40:08.324Z,90.66
2018-12-04T04:41:08.314Z,91.17
2018-12-04T04:42:08.302Z,90.96
2018-12-04T04:43:08.297Z,91.68
2018-12-04T04:44:08.358Z,92.55
2018-12-04T04:45:08.280Z,92.24
2018-12-04T04:46:08.293Z,92.86
2018-12-04T04:47:08.247Z,91.42
2018-12-04T04:48:08.245Z,91.78
2018-12-04T04:49:08.224Z,91.89
2018-12-04T04:50:08.210Z,91.72
2018-12-04T04:51:08.207Z,91.93
2018-12-04T04:52:08.225Z,91.38
2018-12-04T04:53:08.172Z,90.90
2018-12-04T04:54:08.169Z,91.38
2018-12-04T04:55:08.166Z,92.14
2018-12-04T04:56:08.154Z,92.61
2018-12-04T04:57:08.138Z,91.31
2018-12-04T04:58:08.142Z,92.10
2018-12-04T04:59:08.115Z,91.00
2018-12-04T05:00:08.095Z,91.00
2018-12-04T05:01:08.099Z,91.00
2018-12-04T05:02:08.100Z,92.14
2018-12-04T05:03:08.107Z,91.11
2018-12-04T05:04:08.050Z,91.31
2018-12-04T05:05:08.062Z,91.21
2018-12-04T05:06:08.027Z,90.90
2018-12-04T05:07:08.038Z,91.11
2018-12-04T05:08:08.023Z,91.52
2018-12-04T05:09:08.038Z,90.69
2018-12-04T05:10:07.989Z,91.21
2018-12-04T05:11:07.994Z,91.42
2018-12-04T05:12:07.977Z,91.00
2018-12-04T05:13:07.981Z,91.11
2018-12-04T05:14:07.951Z,91.11
2018-12-04T05:15:07.949Z,90.73
2018-12-04T05:16:07.947Z,90.90
2018-12-04T05:17:07.927Z,90.69
2018-12-04T05:18:07.909Z,91.11
2018-12-04T05:19:07.895Z,90.80
2018-12-04T05:20:07.888Z,90.28
2018-12-04T05:21:08.971Z,90.84
2018-12-04T05:22:07.876Z,91.00
2018-12-04T05:23:07.844Z,91.00
2018-12-04T05:24:07.841Z,91.15
2018-12-04T05:25:07.824Z,91.36
2018-12-04T05:26:07.996Z,91.05
2018-12-04T05:27:07.798Z,91.77
2018-12-04T05:28:07.803Z,91.87
2018-12-04T05:29:07.783Z,91.00
2018-12-04T05:30:07.779Z,91.56
2018-12-04T05:31:07.760Z,91.25
2018-12-04T05:32:07.765Z,91.05
2018-12-04T05:33:07.767Z,91.46
2018-12-04T05:34:07.754Z,91.15
2018-12-04T05:35:07.723Z,91.77
2018-12-04T05:36:07.695Z,91.77
2018-12-04T05:37:07.694Z,91.15
2018-12-04T05:38:07.682Z,91.77
2018-12-04T05:39:07.712Z,91.25
2018-12-04T05:40:07.675Z,90.84
2018-12-04T05:41:07.652Z,91.25
2018-12-04T05:42:07.638Z,90.43
2018-12-04T05:43:07.634Z,91.15
2018-12-04T05:44:07.621Z,91.36
2018-12-04T05:45:07.624Z,91.05
2018-12-04T05:46:07.596Z,91.05
2018-12-04T05:47:07.573Z,91.77
2018-12-04T05:48:07.565Z,91.05
2018-12-04T05:49:07.551Z,91.15
2018-12-04T05:50:07.566Z,91.25
2018-12-04T05:51:07.546Z,90.94
2018-12-04T05:52:07.533Z,91.25
2018-12-04T05:53:07.532Z,91.25
2018-12-04T05:54:07.504Z,91.36
2018-12-04T05:55:07.506Z,91.25
2018-12-04T05:56:07.516Z,91.05
2018-12-04T05:57:07.491Z,90.78
2018-12-04T05:58:07.473Z,90.16
2018-12-04T05:59:07.482Z,90.47
2018-12-04T06:00:07.437Z,90.94
2018-12-04T06:01:07.428Z,91.09
2018-12-04T06:02:07.453Z,90.99
2018-12-04T06:03:07.407Z,91.15
2018-12-04T06:04:07.403Z,91.81
2018-12-04T06:05:07.388Z,90.94
2018-12-04T06:06:07.372Z,89.81
2018-12-04T06:07:07.351Z,90.88
2018-12-04T06:08:07.370Z,89.91
2018-12-04T06:09:07.346Z,90.12
2018-12-04T06:10:07.356Z,90.33
2018-12-04T06:11:07.321Z,89.54
2018-12-04T06:12:07.316Z,90.01
2018-12-04T06:13:07.324Z,89.81
2018-12-04T06:14:07.281Z,90.37
2018-12-04T06:15:07.282Z,89.40
2018-12-04T06:16:07.265Z,88.57
2018-12-04T06:17:07.253Z,89.19
2018-12-04T06:18:07.242Z,88.99
2018-12-04T06:19:07.246Z,89.65
2018-12-04T06:20:07.214Z,88.89
2018-12-04T06:21:07.206Z,89.34
2018-12-04T06:22:07.189Z,89.65
2018-12-04T06:23:07.182Z,88.57
2018-12-04T06:24:07.194Z,89.54
2018-12-04T06:25:07.178Z,88.72
2018-12-04T06:26:07.152Z,88.57
2018-12-04T06:27:07.146Z,88.92
2018-12-04T06:28:07.121Z,88.72
2018-12-04T06:29:07.145Z,87.96
2018-12-04T06:30:07.108Z,88.89
2018-12-04T06:31:07.100Z,88.78
2018-12-04T06:32:07.086Z,89.03
2018-12-04T06:33:07.062Z,88.72
2018-12-04T06:34:07.080Z,88.82
2018-12-04T06:35:07.057Z,88.72
2018-12-04T06:36:07.048Z,89.03
2018-12-04T06:37:07.032Z,88.62
2018-12-04T06:38:07.026Z,88.41
2018-12-04T06:39:07.032Z,89.38
2018-12-04T06:40:06.988Z,89.58
2018-12-04T06:41:06.979Z,89.13
2018-12-04T06:42:07.008Z,89.48
2018-12-04T06:43:06.965Z,89.69
2018-12-04T06:44:06.955Z,90.41
2018-12-04T06:45:06.985Z,90.51
2018-12-04T06:46:06.925Z,90.00
2018-12-04T06:47:06.922Z,89.83
2018-12-04T06:48:06.919Z,90.45
2018-12-04T06:49:06.906Z,90.04
2018-12-04T06:50:06.908Z,90.35
2018-12-04T06:51:06.878Z,90.55
2018-12-04T06:52:06.880Z,90.55
2018-12-04T06:53:06.854Z,90.25
2018-12-04T06:54:06.861Z,89.52
2018-12-04T06:55:06.841Z,88.90
2018-12-04T06:56:06.827Z,89.73
2018-12-04T06:57:06.852Z,89.38
2018-12-04T06:58:06.801Z,89.32
2018-12-04T06:59:06.798Z,88.86
2018-12-04T07:00:06.772Z,88.86
2018-12-04T07:01:06.826Z,88.96
2018-12-04T07:02:06.762Z,88.45
2018-12-04T07:03:06.760Z,88.86
2018-12-04T07:04:06.725Z,88.86
2018-12-04T07:05:06.729Z,88.41
2018-12-04T07:06:06.803Z,89.58
2018-12-04T07:07:06.710Z,88.56
2018-12-04T07:08:06.688Z,87.73
2018-12-04T07:09:06.681Z,88.76
2018-12-04T07:10:06.666Z,89.48
2018-12-04T07:11:06.663Z,88.56
2018-12-04T07:12:06.667Z,88.45
2018-12-04T07:13:06.628Z,89.07
2018-12-04T07:14:06.611Z,88.49
2018-12-04T07:15:06.632Z,88.59
2018-12-04T07:16:06.604Z,88.90
2018-12-04T07:17:06.617Z,89.11
2018-12-04T07:18:06.583Z,89.42
2018-12-04T07:19:06.568Z,90.04
2018-12-04T07:20:06.585Z,89.25
2018-12-04T07:21:06.547Z,88.70
2018-12-04T07:22:06.550Z,89.11
2018-12-04T07:23:06.544Z,89.73
2018-12-04T07:24:06.518Z,89.83
2018-12-04T07:25:06.490Z,89.36
2018-12-04T07:26:06.484Z,90.19
2018-12-04T07:27:06.479Z,89.11
2018-12-04T07:28:06.490Z,89.42
2018-12-04T07:29:06.485Z,89.11
2018-12-04T07:30:06.474Z,88.64
2018-12-04T07:31:06.430Z,89.01
2018-12-04T07:32:06.419Z,88.08
2018-12-04T07:33:06.414Z,88.29
2018-12-04T07:34:06.432Z,87.93
2018-12-04T07:35:06.388Z,86.87
2018-12-04T07:36:06.368Z,84.87
2018-12-04T07:37:06.368Z,84.66
2018-12-04T07:38:06.353Z,84.62
2018-12-04T07:39:06.362Z,83.14
2018-12-04T07:40:06.370Z,82.39
2018-12-04T07:41:06.338Z,81.67
2018-12-04T07:42:06.340Z,81.21
2018-12-04T07:43:06.295Z,80.19
2018-12-04T07:44:06.278Z,79.08
2018-12-04T07:45:06.293Z,78.85
2018-12-04T07:46:06.291Z,77.06
2018-12-04T07:47:06.257Z,75.59
2018-12-04T07:48:06.250Z,75.79
2018-12-04T07:49:06.226Z,75.18
2018-12-04T07:50:06.231Z,75.28
2018-12-04T07:51:06.220Z,76.89
2018-12-04T07:52:06.238Z,77.65
2018-12-04T07:53:06.295Z,79.43
2018-12-04T07:54:06.183Z,78.92
2018-12-04T07:55:06.160Z,80.19
2018-12-04T07:56:06.164Z,80.19
2018-12-04T07:57:06.152Z,80.29
2018-12-04T07:58:06.160Z,80.66
2018-12-04T07:59:06.148Z,80.15
2018-12-04T08:00:06.154Z,81.01
2018-12-04T08:01:06.101Z,81.35
2018-12-04T08:02:06.121Z,81.35
2018-12-04T08:03:06.079Z,82.63
2018-12-04T08:04:06.122Z,82.63
2018-12-04T08:05:06.067Z,83.45
2018-12-04T08:06:06.056Z,83.35
2018-12-04T08:07:06.035Z,84.07
2018-12-04T08:08:06.019Z,83.45
2018-12-04T08:09:06.022Z,83.14
2018-12-04T08:10:06.155Z,82.73
2018-12-04T08:11:06.064Z,81.52
2018-12-04T08:12:05.981Z,81.48
2018-12-04T08:13:05.975Z,80.97
2018-12-04T08:14:05.956Z,80.77
2018-12-04T08:15:05.945Z,80.77
2018-12-04T08:16:05.951Z,81.18
2018-12-04T08:17:05.926Z,81.21
2018-12-04T08:18:05.908Z,81.32
2018-12-04T08:19:05.962Z,82.18
2018-12-04T08:20:05.891Z,82.65
2018-12-04T08:21:06.067Z,82.69
2018-12-04T08:22:05.865Z,82.14
2018-12-04T08:23:05.895Z,82.14
2018-12-04T08:24:05.930Z,81.01
2018-12-04T08:25:05.862Z,80.46
2018-12-04T08:26:05.852Z,78.67
2018-12-04T08:27:05.982Z,78.88
2018-12-04T08:28:05.828Z,79.80
2018-12-04T08:29:05.793Z,80.25
2018-12-04T08:30:05.812Z,80.25
2018-12-04T08:31:05.817Z,79.84
2018-12-04T08:32:05.793Z,79.05
2018-12-04T08:33:05.809Z,78.60
2018-12-04T08:34:06.039Z,79.08
2018-12-04T08:35:06.171Z,78.39
2018-12-04T08:36:05.716Z,74.80
2018-12-04T08:37:05.737Z,72.45
2018-12-04T08:38:05.770Z,69.79
2018-12-04T08:39:05.766Z,68.94
2018-12-04T08:40:05.687Z,67.07
2018-12-04T08:41:05.664Z,66.42
2018-12-04T08:42:05.679Z,64.84
2018-12-04T08:43:05.666Z,64.40
2018-12-04T08:44:05.733Z,63.45
2018-12-04T08:45:05.696Z,61.90
2018-12-04T08:46:05.676Z,61.94
2018-12-04T08:47:05.795Z,60.69
2018-12-04T08:48:05.626Z,59.44
2018-12-04T08:49:05.607Z,58.29
2018-12-04T08:50:05.604Z,58.29
2018-12-04T08:51:05.574Z,57.15
2018-12-04T08:52:05.551Z,54.86
2018-12-04T08:53:05.562Z,55.22
2018-12-04T08:54:05.547Z,53.70
2018-12-04T08:55:05.511Z,53.17
2018-12-04T08:56:05.505Z,52.33
2018-12-04T08:57:05.521Z,52.26
2018-12-04T08:58:05.546Z,50.92
2018-12-04T08:59:05.452Z,51.42
2018-12-04T09:00:05.450Z,54.46
2018-12-04T09:01:05.426Z,56.26
2018-12-04T09:02:05.414Z,55.85
2018-12-04T09:03:05.449Z,52.79
2018-12-04T09:04:05.592Z,49.69
2018-12-04T09:05:05.415Z,47.92
2018-12-04T09:06:05.395Z,47.75
2018-12-04T09:07:06.500Z,45.39
2018-12-04T09:08:09.351Z,44.77
2018-12-04T09:09:05.589Z,42.64
2018-12-04T09:10:05.349Z,44.83
2018-12-04T09:11:05.324Z,44.37
2018-12-04T09:12:05.317Z,43.72
2018-12-04T09:13:05.303Z,44.63
2018-12-04T09:14:05.316Z,42.61
2018-12-04T09:15:05.284Z,42.54
2018-12-04T09:16:05.283Z,42.64
2018-12-04T09:17:05.265Z,44.67
2018-12-04T09:18:05.294Z,46.61
2018-12-04T09:19:05.289Z,46.09
2018-12-04T09:20:05.285Z,46.04
2018-12-04T09:21:05.220Z,45.92
2018-12-04T09:22:05.221Z,46.15
2018-12-04T09:23:05.205Z,49.19
2018-12-04T09:24:05.244Z,51.95
2018-12-04T09:25:05.260Z,54.97
2018-12-04T09:26:05.191Z,55.58
2018-12-04T09:27:05.697Z,57.23
2018-12-04T09:28:05.187Z,55.15
2018-12-04T09:29:05.163Z,55.78
2018-12-04T09:30:05.142Z,56.01
2018-12-04T09:31:05.124Z,50.99
2018-12-04T09:32:05.115Z,50.92
2018-12-04T09:33:05.079Z,52.25
2018-12-04T09:34:05.071Z,50.99
2018-12-04T09:35:05.063Z,52.79
2018-12-04T09:36:05.067Z,55.83
2018-12-04T09:37:05.050Z,57.10
2018-12-04T09:38:05.056Z,56.09
2018-12-04T09:39:05.038Z,58.45
2018-12-04T09:40:05.021Z,58.40
2018-12-04T09:41:05.011Z,58.84
2018-12-04T09:42:04.997Z,59.09
2018-12-04T09:43:04.970Z,57.29
2018-12-04T09:44:04.956Z,60.30
2018-12-04T09:45:04.978Z,58.99
2018-12-04T09:46:04.941Z,59.84
2018-12-04T09:47:04.938Z,54.74
2018-12-04T09:48:04.917Z,49.58
2018-12-04T09:49:04.912Z,50.41
2018-12-04T09:50:04.897Z,54.79
2018-12-04T09:51:04.902Z,56.32
2018-12-04T09:52:04.894Z,57.26
2018-12-04T09:53:04.876Z,58.20
2018-12-04T09:54:04.851Z,59.07
2018-12-04T09:55:04.845Z,60.09
2018-12-04T09:56:04.846Z,59.91
2018-12-04T09:57:04.852Z,59.96
2018-12-04T09:58:04.811Z,58.13
2018-12-04T09:59:04.842Z,59.25
2018-12-04T10:00:04.805Z,58.40
2018-12-04T10:01:04.784Z,57.42
2018-12-04T10:02:04.799Z,60.02
2018-12-04T10:03:04.764Z,58.40
2018-12-04T10:04:04.735Z,59.07
2018-12-04T10:05:04.733Z,59.43
2018-12-04T10:06:04.722Z,60.09
2018-12-04T10:07:04.740Z,59.89
2018-12-04T10:08:04.709Z,59.94
2018-12-04T10:09:04.695Z,62.35
2018-12-04T10:10:04.678Z,62.17
2018-12-04T10:11:04.655Z,60.03
2018-12-04T10:12:04.673Z,60.26
2018-12-04T10:13:04.650Z,64.61
2018-12-04T10:14:04.641Z,63.72
2018-12-04T10:15:04.609Z,64.43
2018-12-04T10:16:04.604Z,64.84
2018-12-04T10:17:04.594Z,64.77
2018-12-04T10:18:04.607Z,64.29
2018-12-04T10:19:04.586Z,66.24
2018-12-04T10:20:04.578Z,67.08
2018-12-04T10:21:04.568Z,67.40
2018-12-04T10:22:04.556Z,68.24
2018-12-04T10:23:04.551Z,68.59
2018-12-04T10:24:04.527Z,69.95
2018-12-04T10:25:04.510Z,70.26
2018-12-04T10:26:04.495Z,69.95
2018-12-04T10:27:04.494Z,70.26
2018-12-04T10:28:05.461Z,69.03
2018-12-04T10:29:04.481Z,65.46
2018-12-04T10:30:04.451Z,67.87
2018-12-04T10:31:04.456Z,67.67
2018-12-04T10:32:04.433Z,66.78
2018-12-04T10:33:04.456Z,67.43
2018-12-04T10:34:04.417Z,66.74
2018-12-04T10:35:04.390Z,65.92
2018-12-04T10:36:04.384Z,66.87
2018-12-04T10:37:04.371Z,68.62
2018-12-04T10:38:04.355Z,67.14
2018-12-04T10:39:04.378Z,67.44
2018-12-04T10:40:04.344Z,67.21
2018-12-04T10:41:04.336Z,66.80
2018-12-04T10:42:04.322Z,66.16
2018-12-04T10:43:04.307Z,63.10
2018-12-04T10:44:04.330Z,63.34
2018-12-04T10:45:04.308Z,65.01
2018-12-04T10:46:04.280Z,64.22
2018-12-04T10:47:04.261Z,64.35
2018-12-04T10:48:04.255Z,65.07
2018-12-04T10:49:04.235Z,66.81
2018-12-04T10:50:04.257Z,68.48
2018-12-04T10:51:04.238Z,67.35
2018-12-04T10:52:04.218Z,66.84
2018-12-04T10:53:04.211Z,66.22
2018-12-04T10:54:04.202Z,67.18
2018-12-04T10:55:04.526Z,64.90
2018-12-04T10:56:04.160Z,64.65
2018-12-04T10:57:09.676Z,65.20
2018-12-04T10:58:05.150Z,66.67
2018-12-04T10:59:04.137Z,66.16
2018-12-04T11:00:04.165Z,66.49
2018-12-04T11:01:04.169Z,67.62
2018-12-04T11:02:04.096Z,64.01
2018-12-04T11:03:04.086Z,63.94
2018-12-04T11:04:04.082Z,64.65
2018-12-04T11:05:04.072Z,60.21
2018-12-04T11:06:04.082Z,58.42
2018-12-04T11:07:04.043Z,59.42
2018-12-04T11:08:04.024Z,60.42
2018-12-04T11:09:04.023Z,60.58
2018-12-04T11:10:04.016Z,62.27
2018-12-04T11:11:04.037Z,64.17
2018-12-04T11:12:03.996Z,63.09
2018-12-04T11:13:03.991Z,62.37
2018-12-04T11:14:03.971Z,62.35
2018-12-04T11:15:03.953Z,61.83
2018-12-04T11:16:03.934Z,62.32
2018-12-04T11:17:03.969Z,61.36
2018-12-04T11:18:03.930Z,59.73
2018-12-04T11:19:03.910Z,61.29
2018-12-04T11:20:04.204Z,61.50
2018-12-04T11:21:03.949Z,61.70
2018-12-04T11:22:03.986Z,60.58
2018-12-04T11:23:03.888Z,60.17
2018-12-04T11:24:03.865Z,61.06
2018-12-04T11:25:03.852Z,60.24
2018-12-04T11:26:04.145Z,60.03
2018-12-04T11:27:04.024Z,61.26
2018-12-04T11:28:03.841Z,58.61
2018-12-04T11:29:03.865Z,61.06
2018-12-04T11:30:03.922Z,59.63
2018-12-04T11:31:03.831Z,59.86
2018-12-04T11:32:03.858Z,60.58
2018-12-04T11:33:04.398Z,59.48
2018-12-04T11:34:03.743Z,61.22
2018-12-04T11:35:03.738Z,59.84
2018-12-04T11:36:03.742Z,62.19
2018-12-04T11:37:03.713Z,61.07
2018-12-04T11:38:03.709Z,61.82
2018-12-04T11:39:03.726Z,61.58
2018-12-04T11:40:03.683Z,62.84
2018-12-04T11:41:03.677Z,63.05
2018-12-04T11:42:03.655Z,62.23
2018-12-04T11:43:03.645Z,62.12
2018-12-04T11:44:03.641Z,63.18
2018-12-04T11:45:03.643Z,62.36
2018-12-04T11:46:03.619Z,63.05
2018-12-04T11:47:03.600Z,64.00
2018-12-04T11:48:03.588Z,63.15
2018-12-04T11:49:03.582Z,62.43
2018-12-04T11:50:03.628Z,62.10
2018-12-04T11:51:03.551Z,62.92
2018-12-04T11:52:03.545Z,62.10
2018-12-04T11:53:03.536Z,61.45
2018-12-04T11:54:03.522Z,61.35
2018-12-04T11:55:03.515Z,60.42
2018-12-04T11:56:03.535Z,60.22
2018-12-04T11:57:03.498Z,60.35
2018-12-04T11:58:03.490Z,61.18
2018-12-04T11:59:03.469Z,60.58
2018-12-04T12:00:03.457Z,62.63
2018-12-04T12:01:03.443Z,62.12
2018-12-04T12:02:03.451Z,62.56
2018-12-04T12:03:03.429Z,62.33
2018-12-04T12:04:04.525Z,61.23
2018-12-04T12:05:03.426Z,62.26
2018-12-04T12:06:03.392Z,62.54
2018-12-04T12:07:03.381Z,61.30
2018-12-04T12:08:03.373Z,61.51
2018-12-04T12:09:03.371Z,62.33
2018-12-04T12:10:03.381Z,62.02
2018-12-04T12:11:03.337Z,61.41
2018-12-04T12:12:03.322Z,60.82
2018-12-04T12:13:03.331Z,62.56
2018-12-04T12:14:03.301Z,62.36
2018-12-04T12:15:03.318Z,62.26
2018-12-04T12:16:03.285Z,62.36
2018-12-04T12:17:03.270Z,62.26
2018-12-04T12:18:03.266Z,61.54
2018-12-04T12:19:03.248Z,60.85
2018-12-04T12:20:03.246Z,62.15
2018-12-04T12:21:03.231Z,62.26
2018-12-04T12:22:03.222Z,62.56
2018-12-04T12:23:03.197Z,61.33
2018-12-04T12:24:03.204Z,61.85
2018-12-04T12:25:03.189Z,62.05
2018-12-04T12:26:03.165Z,60.41
2018-12-04T12:27:03.166Z,63.00
2018-12-04T12:28:03.153Z,60.82
2018-12-04T12:29:03.147Z,61.33
2018-12-04T12:30:03.149Z,61.33
2018-12-04T12:31:03.113Z,62.36
2018-12-04T12:32:03.103Z,62.36
2018-12-04T12:33:03.090Z,61.95
2018-12-04T12:34:03.075Z,61.46
2018-12-04T12:35:03.097Z,60.41
2018-12-04T12:36:03.067Z,60.72
2018-12-04T12:37:03.056Z,60.00
2018-12-04T12:38:03.107Z,60.44
2018-12-04T12:39:03.045Z,61.46
2018-12-04T12:40:03.038Z,62.39
2018-12-04T12:41:03.063Z,62.29
2018-12-04T12:42:03.032Z,61.05
2018-12-04T12:43:02.993Z,60.23
2018-12-04T12:44:02.978Z,60.33
2018-12-04T12:45:02.974Z,59.72
2018-12-04T12:46:02.951Z,59.85
2018-12-04T12:47:02.946Z,62.31
2018-12-04T12:48:02.938Z,61.18
2018-12-04T12:49:02.915Z,60.47
2018-12-04T12:50:02.942Z,61.62
2018-12-04T12:51:02.905Z,62.34
2018-12-04T12:52:02.884Z,62.58